createdAt,value
2022-09-25T00:01:18.757Z,3.77
2022-09-25T00:03:48.151Z,5.47
2022-09-25T00:06:20.394Z,3.90
2022-09-25T00:08:48.736Z,5.15
2022-09-25T00:11:23.684Z,4.95
2022-09-25T00:13:52.160Z,4.05
2022-09-25T00:16:23.884Z,4.17
2022-09-25T00:19:09.997Z,5.10
2022-09-25T00:21:38.186Z,5.28
2022-09-25T00:24:08.964Z,7.78
2022-09-25T00:26:40.977Z,8.23
2022-09-25T00:29:15.415Z,7.80
2022-09-25T00:31:43.040Z,7.83
2022-09-25T00:34:11.229Z,8.30
2022-09-25T00:36:39.243Z,7.80
2022-09-25T00:39:07.056Z,7.87
2022-09-25T00:41:35.172Z,5.83
2022-09-25T00:44:24.775Z,8.55
2022-09-25T00:46:52.738Z,7.95
2022-09-25T00:49:24.377Z,9.55
2022-09-25T00:52:08.965Z,9.73
2022-09-25T00:54:54.211Z,7.17
2022-09-25T00:57:26.460Z,10.38
2022-09-25T00:59:58.449Z,6.62
2022-09-25T01:02:38.342Z,10.23
2022-09-25T01:05:11.757Z,5.92
2022-09-25T01:07:47.950Z,6.15
2022-09-25T01:10:23.737Z,8.03
2022-09-25T01:13:00.990Z,5.53
2022-09-25T01:15:43.384Z,6.65
2022-09-25T01:18:40.646Z,5.25
2022-09-25T01:22:00.667Z,5.92
2022-09-25T01:25:17.334Z,5.92
2022-09-25T01:28:36.610Z,5.70
2022-09-25T01:31:43.366Z,4.60
2022-09-25T01:34:24.075Z,5.35
2022-09-25T01:37:16.109Z,6.50
2022-09-25T01:40:14.095Z,6.45
2022-09-25T01:43:18.322Z,5.90
2022-09-25T01:46:03.921Z,4.20
2022-09-25T01:48:35.533Z,4.12
2022-09-25T01:51:11.107Z,3.52
2022-09-25T01:53:47.766Z,3.83
2022-09-25T01:56:26.648Z,3.17
2022-09-25T01:59:02.708Z,4.45
2022-09-25T02:01:35.503Z,2.98
2022-09-25T02:04:11.760Z,6.30
2022-09-25T02:06:43.026Z,3.83
2022-09-25T02:09:21.765Z,5.70
2022-09-25T02:11:54.205Z,6.40
2022-09-25T02:14:26.940Z,3.22
2022-09-25T02:16:58.187Z,3.20
2022-09-25T02:19:44.951Z,7.08
2022-09-25T02:22:20.365Z,4.90
2022-09-25T02:24:59.626Z,4.05
2022-09-25T02:27:28.837Z,8.18
2022-09-25T02:29:57.928Z,11.57
2022-09-25T02:32:31.835Z,9.63
2022-09-25T02:35:00.372Z,10.98
2022-09-25T02:37:29.021Z,7.87
2022-09-25T02:40:00.196Z,5.83
2022-09-25T02:43:02.839Z,4.42
2022-09-25T02:45:44.384Z,4.67
2022-09-25T02:48:49.666Z,3.22
2022-09-25T02:51:34.245Z,2.87
2022-09-25T02:54:10.361Z,3.92
2022-09-25T02:57:03.577Z,3.08
2022-09-25T02:59:35.629Z,3.52
2022-09-25T03:02:04.154Z,5.28
2022-09-25T03:04:36.005Z,7.65
2022-09-25T03:07:04.339Z,4.97
2022-09-25T03:09:36.044Z,5.47
2022-09-25T03:12:04.559Z,7.53
2022-09-25T03:14:32.088Z,11.43
2022-09-25T03:17:04.282Z,11.97
2022-09-25T03:19:34.236Z,7.85
2022-09-25T03:22:08.659Z,4.53
2022-09-25T03:24:36.615Z,4.03
2022-09-25T03:27:04.288Z,3.85
2022-09-25T03:29:32.206Z,4.33
2022-09-25T03:32:00.029Z,4.10
2022-09-25T03:34:27.668Z,2.60
2022-09-25T03:36:55.124Z,3.40
2022-09-25T03:39:22.772Z,2.45
2022-09-25T03:41:50.408Z,4.33
2022-09-25T03:44:17.828Z,4.12
2022-09-25T03:46:45.186Z,2.83
2022-09-25T03:49:13.534Z,5.35
2022-09-25T03:51:41.672Z,2.98
2022-09-25T03:54:09.265Z,4.20
2022-09-25T03:56:36.852Z,3.08
2022-09-25T03:59:04.588Z,4.92
2022-09-25T04:01:32.703Z,6.92
2022-09-25T04:04:02.310Z,2.95
2022-09-25T04:06:30.037Z,3.70
2022-09-25T04:08:57.312Z,3.52
2022-09-25T04:11:24.960Z,3.30
2022-09-25T04:13:53.053Z,8.73
2022-09-25T04:16:21.351Z,4.97
2022-09-25T04:18:49.403Z,7.17
2022-09-25T04:21:17.256Z,7.58
2022-09-25T04:23:49.405Z,4.60
2022-09-25T04:26:16.695Z,4.67
2022-09-25T04:28:44.849Z,5.15
2022-09-25T04:31:12.340Z,4.42
2022-09-25T04:33:45.822Z,6.08
2022-09-25T04:38:47.649Z,12.18
2022-09-25T04:41:18.808Z,22.13
2022-09-25T04:43:46.779Z,10.15
2022-09-25T04:46:22.020Z,5.33
2022-09-25T04:48:46.719Z,5.12
2022-09-25T04:51:14.251Z,6.28
2022-09-25T04:53:42.635Z,5.22
2022-09-25T04:56:15.359Z,5.85
2022-09-25T04:58:46.831Z,5.22
2022-09-25T05:03:42.640Z,3.62
2022-09-25T05:06:10.192Z,6.78
2022-09-25T05:08:37.950Z,4.45
2022-09-25T05:11:07.466Z,4.97
2022-09-25T05:13:35.192Z,4.37
2022-09-25T05:16:02.552Z,7.37
2022-09-25T05:18:29.972Z,7.95
2022-09-25T05:20:57.457Z,5.67
2022-09-25T05:23:24.721Z,4.90
2022-09-25T05:25:58.480Z,4.70
2022-09-25T05:28:26.368Z,5.58
2022-09-25T05:30:54.081Z,6.95
2022-09-25T05:33:21.511Z,4.03
2022-09-25T05:35:49.005Z,3.70
2022-09-25T05:38:16.423Z,4.92
2022-09-25T05:40:44.163Z,4.60
2022-09-25T05:43:12.211Z,4.58
2022-09-25T05:45:39.787Z,4.30
2022-09-25T05:48:08.511Z,5.22
2022-09-25T05:50:36.757Z,5.30
2022-09-25T05:53:05.859Z,7.05
2022-09-25T05:55:33.519Z,7.60
2022-09-25T05:58:03.093Z,7.10
2022-09-25T06:00:33.643Z,9.35
2022-09-25T06:03:01.885Z,7.90
2022-09-25T06:05:29.836Z,5.03
2022-09-25T06:07:57.488Z,4.62
2022-09-25T06:10:27.769Z,4.28
2022-09-25T06:13:00.612Z,6.15
2022-09-25T06:15:31.878Z,5.50
2022-09-25T06:17:59.212Z,9.55
2022-09-25T06:20:26.705Z,5.42
2022-09-25T06:22:55.303Z,5.00
2022-09-25T06:25:25.985Z,7.12
2022-09-25T06:27:56.675Z,7.22
2022-09-25T06:30:27.585Z,4.15
2022-09-25T06:32:59.382Z,5.28
2022-09-25T06:35:31.529Z,8.35
2022-09-25T06:38:00.585Z,8.50
2022-09-25T06:40:30.960Z,10.98
2022-09-25T06:43:01.742Z,5.75
2022-09-25T06:45:37.707Z,4.87
2022-09-25T06:48:09.671Z,5.58
2022-09-25T06:50:53.147Z,5.17
2022-09-25T06:53:23.266Z,5.08
2022-09-25T06:55:52.400Z,6.28
2022-09-25T06:58:22.974Z,4.47
2022-09-25T07:00:53.725Z,4.58
2022-09-25T07:03:41.018Z,4.40
2022-09-25T07:06:11.650Z,3.83
2022-09-25T07:08:40.216Z,6.30
2022-09-25T07:11:07.930Z,6.60
2022-09-25T07:13:36.238Z,6.28
2022-09-25T07:16:06.878Z,5.97
2022-09-25T07:18:35.081Z,6.67
2022-09-25T07:21:06.165Z,6.83
2022-09-25T07:23:34.961Z,5.90
2022-09-25T07:26:21.638Z,5.45
2022-09-25T07:28:56.539Z,7.78
2022-09-25T07:31:27.963Z,7.12
2022-09-25T07:33:57.144Z,5.83
2022-09-25T07:36:24.744Z,6.58
2022-09-25T07:38:53.239Z,5.87
2022-09-25T07:41:22.277Z,10.38
2022-09-25T07:44:17.562Z,11.60
2022-09-25T07:46:28.095Z,6.72
2022-09-25T07:48:55.453Z,6.70
2022-09-25T07:51:23.953Z,7.83
2022-09-25T07:53:51.955Z,7.00
2022-09-25T07:56:20.285Z,7.72
2022-09-25T07:58:48.609Z,7.53
2022-09-25T08:01:15.854Z,8.60
2022-09-25T08:03:43.084Z,8.33
2022-09-25T08:06:13.175Z,6.70
2022-09-25T08:08:43.061Z,7.12
2022-09-25T08:11:14.606Z,5.25
2022-09-25T08:13:43.031Z,5.47
2022-09-25T08:16:17.318Z,8.98
2022-09-25T08:18:46.710Z,6.17
2022-09-25T08:21:17.546Z,3.98
2022-09-25T08:23:51.719Z,4.80
2022-09-25T08:26:21.793Z,6.33
2022-09-25T08:28:50.471Z,8.08
2022-09-25T08:31:18.387Z,5.08
2022-09-25T08:33:48.003Z,9.13
2022-09-25T08:36:17.464Z,8.45
2022-09-25T08:38:46.141Z,10.72
2022-09-25T08:41:32.879Z,7.60
2022-09-25T08:44:24.118Z,7.05
2022-09-25T08:47:36.673Z,5.62
2022-09-25T08:50:16.149Z,5.60
2022-09-25T08:52:49.072Z,5.72
2022-09-25T08:55:54.519Z,4.25
2022-09-25T08:58:26.702Z,5.15
2022-09-25T09:01:01.583Z,6.25
2022-09-25T09:03:33.006Z,3.42
2022-09-25T09:06:06.041Z,3.35
2022-09-25T09:08:36.673Z,4.20
2022-09-25T09:11:18.564Z,3.30
2022-09-25T09:14:02.449Z,4.05
2022-09-25T09:16:53.992Z,3.45
2022-09-25T09:19:21.985Z,2.45
2022-09-25T09:22:03.731Z,1.92
2022-09-25T09:25:04.189Z,3.08
2022-09-25T09:27:57.015Z,1.52
2022-09-25T09:30:38.482Z,2.03
2022-09-25T09:33:29.747Z,2.12
2022-09-25T09:36:25.620Z,2.67
2022-09-25T09:39:31.724Z,1.70
2022-09-25T09:42:19.927Z,1.92
2022-09-25T09:45:16.776Z,2.05
2022-09-25T09:48:17.049Z,2.45
2022-09-25T09:50:56.107Z,1.57
2022-09-25T09:53:32.134Z,2.30
2022-09-25T09:56:09.355Z,4.05
2022-09-25T09:58:54.793Z,1.85
2022-09-25T10:01:41.230Z,1.70
2022-09-25T10:04:16.847Z,1.98
2022-09-25T10:06:49.855Z,2.60
2022-09-25T10:09:17.708Z,1.98
2022-09-25T10:11:49.317Z,1.82
2022-09-25T10:14:20.574Z,8.85
2022-09-25T10:16:51.729Z,2.77
2022-09-25T10:19:23.459Z,2.50
2022-09-25T10:22:05.065Z,1.50
2022-09-25T10:25:02.073Z,2.83
2022-09-25T10:27:36.374Z,1.57
2022-09-25T10:30:18.902Z,2.22
2022-09-25T10:33:02.974Z,1.95
2022-09-25T10:35:45.461Z,3.15
2022-09-25T10:38:35.241Z,1.70
2022-09-25T10:41:16.821Z,2.80
2022-09-25T10:44:02.183Z,2.02
2022-09-25T10:46:54.893Z,1.70
2022-09-25T10:49:46.349Z,1.92
2022-09-25T10:52:21.382Z,3.55
2022-09-25T10:54:51.036Z,2.50
2022-09-25T10:57:37.037Z,4.65
2022-09-25T11:00:12.757Z,4.35
2022-09-25T11:02:46.011Z,3.50
2022-09-25T11:05:25.657Z,1.70
2022-09-25T11:07:57.562Z,3.30
2022-09-25T11:10:33.590Z,1.45
2022-09-25T11:13:09.546Z,3.50
2022-09-25T11:15:38.496Z,1.85
2022-09-25T11:18:09.097Z,1.30
2022-09-25T11:20:37.139Z,1.50
2022-09-25T11:23:31.722Z,1.87
2022-09-25T11:26:11.053Z,3.45
2022-09-25T11:28:50.257Z,4.03
2022-09-25T11:31:35.032Z,8.40
2022-09-25T11:34:42.550Z,1.50
2022-09-25T11:37:21.117Z,1.90
2022-09-25T11:40:12.412Z,3.47
2022-09-25T11:43:03.674Z,2.47
2022-09-25T11:45:36.418Z,2.25
2022-09-25T11:48:24.222Z,2.08
2022-09-25T11:51:03.480Z,1.40
2022-09-25T11:54:32.717Z,2.10
2022-09-25T11:56:53.765Z,1.62
2022-09-25T11:59:57.364Z,2.55
2022-09-25T12:03:06.042Z,4.35
2022-09-25T12:05:44.900Z,1.40
2022-09-25T12:08:47.063Z,2.10
2022-09-25T12:11:39.807Z,3.02
2022-09-25T12:14:46.290Z,1.77
2022-09-25T12:17:43.264Z,2.02
2022-09-25T12:20:22.090Z,2.37
2022-09-25T12:23:13.729Z,4.17
2022-09-25T12:26:23.639Z,1.85
2022-09-25T12:29:05.973Z,1.82
2022-09-25T12:31:58.505Z,3.98
2022-09-25T12:34:40.473Z,2.35
2022-09-25T12:37:42.053Z,1.67
2022-09-25T12:40:49.848Z,1.62
2022-09-25T12:43:28.720Z,1.45
2022-09-25T12:46:29.937Z,1.70
2022-09-25T12:49:06.136Z,2.05
2022-09-25T12:51:50.814Z,2.35
2022-09-25T12:54:39.183Z,2.22
2022-09-25T12:57:27.442Z,4.45
2022-09-25T13:00:08.249Z,2.33
2022-09-25T13:02:50.904Z,3.12
2022-09-25T13:05:34.991Z,3.50
2022-09-25T13:08:36.822Z,2.40
2022-09-25T13:11:25.511Z,1.77
2022-09-25T13:13:54.760Z,3.05
2022-09-25T13:16:22.326Z,2.50
2022-09-25T13:19:12.572Z,2.30
2022-09-25T13:21:43.169Z,5.00
2022-09-25T13:24:14.792Z,3.83
2022-09-25T13:26:55.074Z,4.67
2022-09-25T13:29:30.003Z,4.80
2022-09-25T13:32:15.392Z,4.08
2022-09-25T13:34:43.456Z,3.58
2022-09-25T13:37:14.542Z,4.05
2022-09-25T13:40:08.357Z,2.35
2022-09-25T13:45:32.959Z,4.22
2022-09-25T13:48:15.095Z,5.87
2022-09-25T13:50:45.604Z,7.53
2022-09-25T13:53:24.681Z,4.80
2022-09-25T13:56:01.209Z,5.10
2022-09-25T13:58:58.911Z,4.33
2022-09-25T14:01:46.139Z,4.92
2022-09-25T14:04:22.054Z,7.17
2022-09-25T14:06:55.510Z,6.10
2022-09-25T14:09:29.659Z,7.25
2022-09-25T14:12:07.620Z,5.87
2022-09-25T14:14:51.733Z,3.33
2022-09-25T14:17:22.912Z,4.22
2022-09-25T14:19:54.274Z,3.67
2022-09-25T14:22:45.934Z,8.03
2022-09-25T14:25:40.030Z,5.33
2022-09-25T14:28:26.508Z,5.17
2022-09-25T14:31:32.139Z,4.03
2022-09-25T14:34:38.748Z,4.87
2022-09-25T14:37:50.042Z,4.37
2022-09-25T14:40:37.623Z,5.85
2022-09-25T14:43:17.036Z,7.65
2022-09-25T14:46:17.055Z,7.05
2022-09-25T14:48:51.943Z,3.20
2022-09-25T14:51:27.764Z,3.98
2022-09-25T14:54:01.036Z,4.55
2022-09-25T14:56:32.292Z,5.33
2022-09-25T14:59:09.627Z,3.27
2022-09-25T15:01:44.108Z,4.75
2022-09-25T15:04:11.971Z,3.42
2022-09-25T15:06:40.049Z,3.77
2022-09-25T15:09:47.226Z,3.75
2022-09-25T15:12:33.282Z,9.10
2022-09-25T15:15:13.677Z,36.15
2022-09-25T15:17:59.176Z,36.70
2022-09-25T15:20:32.299Z,28.32
2022-09-25T15:23:11.339Z,31.23
2022-09-25T15:25:46.465Z,38.02
2022-09-25T15:28:18.868Z,40.38
2022-09-25T15:30:59.148Z,57.43
2022-09-25T15:33:35.723Z,59.05
2022-09-25T15:36:20.032Z,65.12
2022-09-25T15:39:04.585Z,61.23
2022-09-25T15:41:32.087Z,38.38
2022-09-25T15:44:21.999Z,27.15
2022-09-25T15:46:57.003Z,14.95
2022-09-25T15:49:37.566Z,21.00
2022-09-25T15:52:29.578Z,17.25
2022-09-25T15:55:02.453Z,24.07
2022-09-25T15:57:32.108Z,20.12
2022-09-25T16:00:29.709Z,23.62
2022-09-25T16:03:27.307Z,55.38
2022-09-25T16:05:56.163Z,43.75
2022-09-25T16:08:34.177Z,56.10
2022-09-25T16:11:25.740Z,56.70
2022-09-25T16:13:58.165Z,56.45
2022-09-25T16:16:29.086Z,53.10
2022-09-25T16:19:02.861Z,48.83
2022-09-25T16:21:35.918Z,44.70
2022-09-25T16:24:06.970Z,39.03
2022-09-25T16:26:43.297Z,37.63
2022-09-25T16:29:27.542Z,37.48
2022-09-25T16:32:07.887Z,54.08
2022-09-25T16:34:39.052Z,54.45
2022-09-25T16:37:12.191Z,52.78
2022-09-25T16:39:39.837Z,35.13
2022-09-25T16:42:27.345Z,36.48
2022-09-25T16:45:26.606Z,34.25
2022-09-25T16:47:54.837Z,26.17
2022-09-25T16:50:22.535Z,28.77
2022-09-25T16:52:50.203Z,30.00
2022-09-25T16:55:28.560Z,27.35
2022-09-25T16:57:57.948Z,35.58
2022-09-25T17:00:29.274Z,34.90
2022-09-25T17:02:57.172Z,28.83
2022-09-25T17:05:28.513Z,20.80
2022-09-25T17:08:18.847Z,16.82
2022-09-25T17:10:50.212Z,22.07
2022-09-25T17:13:22.856Z,23.32
2022-09-25T17:15:50.239Z,33.28
2022-09-25T17:18:20.750Z,30.62
2022-09-25T17:20:53.065Z,26.42
2022-09-25T17:23:23.292Z,21.05
2022-09-25T17:26:01.972Z,18.23
2022-09-25T17:28:29.652Z,27.07
2022-09-25T17:30:57.437Z,25.90
2022-09-25T17:33:24.994Z,28.65
2022-09-25T17:36:05.594Z,25.32
2022-09-25T17:38:33.915Z,21.97
2022-09-25T17:41:05.970Z,16.48
2022-09-25T17:43:33.879Z,14.18
2022-09-25T17:46:01.666Z,17.07
2022-09-25T17:48:31.205Z,14.53
2022-09-25T17:51:06.327Z,20.12
2022-09-25T17:53:34.001Z,16.97
2022-09-25T17:56:02.220Z,17.52
2022-09-25T17:58:31.643Z,18.60
2022-09-25T18:01:01.172Z,19.65
2022-09-25T18:03:30.445Z,17.17
2022-09-25T18:05:59.874Z,15.43
2022-09-25T18:08:27.432Z,14.58
2022-09-25T18:10:58.369Z,12.98
2022-09-25T18:13:26.619Z,13.50
2022-09-25T18:15:59.572Z,11.00
2022-09-25T18:18:32.541Z,9.73
2022-09-25T18:21:18.855Z,11.30
2022-09-25T18:23:46.438Z,11.65
2022-09-25T18:26:13.930Z,12.13
2022-09-25T18:28:41.432Z,9.13
2022-09-25T18:31:09.141Z,11.40
2022-09-25T18:33:36.653Z,9.68
2022-09-25T18:36:04.229Z,8.85
2022-09-25T18:38:31.662Z,10.23
2022-09-25T18:41:03.040Z,11.05
2022-09-25T18:43:30.899Z,7.72
2022-09-25T18:45:58.258Z,10.05
2022-09-25T18:48:26.280Z,10.00
2022-09-25T18:50:53.907Z,8.93
2022-09-25T18:53:21.280Z,9.85
2022-09-25T18:55:54.800Z,8.30
2022-09-25T18:58:22.216Z,12.82
2022-09-25T19:00:50.507Z,11.38
2022-09-25T19:03:18.246Z,10.70
2022-09-25T19:05:56.668Z,12.80
2022-09-25T19:08:24.414Z,16.55
2022-09-25T19:10:51.994Z,10.88
2022-09-25T19:13:19.655Z,10.18
2022-09-25T19:15:47.451Z,22.17
2022-09-25T19:18:15.064Z,20.15
2022-09-25T19:20:52.573Z,14.90
2022-09-25T19:23:25.578Z,12.10
2022-09-25T19:26:00.506Z,12.13
2022-09-25T19:28:30.791Z,12.10
2022-09-25T19:31:02.667Z,11.93
2022-09-25T19:33:34.944Z,12.13
2022-09-25T19:36:10.661Z,8.70
2022-09-25T19:38:41.068Z,12.55
2022-09-25T19:41:16.174Z,18.20
2022-09-25T19:43:44.189Z,24.32
2022-09-25T19:46:17.715Z,17.30
2022-09-25T19:51:16.458Z,11.12
2022-09-25T19:53:45.628Z,11.33
2022-09-25T19:56:14.042Z,10.50
2022-09-25T19:58:42.403Z,14.40
2022-09-25T20:01:13.280Z,11.33
2022-09-25T20:03:42.017Z,10.82
2022-09-25T20:06:11.041Z,13.38
2022-09-25T20:08:39.239Z,13.03
2022-09-25T20:11:21.828Z,13.35
2022-09-25T20:13:52.404Z,11.93
2022-09-25T20:16:24.946Z,16.93
2022-09-25T20:18:57.411Z,17.92
2022-09-25T20:21:28.640Z,11.65
2022-09-25T20:23:59.056Z,11.48
2022-09-25T20:26:28.086Z,12.50
2022-09-25T20:29:01.770Z,9.78
2022-09-25T20:31:32.131Z,10.55
2022-09-25T20:33:59.937Z,10.90
2022-09-25T20:36:27.599Z,10.10
2022-09-25T20:38:56.889Z,12.60
2022-09-25T20:41:26.077Z,11.12
2022-09-25T20:43:56.642Z,9.40
2022-09-25T20:46:25.928Z,9.90
2022-09-25T20:48:56.885Z,8.23
2022-09-25T20:51:28.697Z,9.10
2022-09-25T20:54:06.743Z,8.25
2022-09-25T20:56:36.551Z,8.20
2022-09-25T20:59:05.195Z,7.67
2022-09-25T21:01:36.520Z,7.70
2022-09-25T21:04:07.265Z,8.08
2022-09-25T21:06:37.372Z,10.43
2022-09-25T21:09:09.776Z,10.55
2022-09-25T21:11:39.071Z,9.08
2022-09-25T21:14:06.386Z,9.33
2022-09-25T21:16:34.104Z,10.80
2022-09-25T21:19:04.291Z,8.80
2022-09-25T21:21:33.165Z,8.70
2022-09-25T21:24:01.927Z,6.67
2022-09-25T21:26:31.480Z,6.55
2022-09-25T21:29:04.254Z,6.65
2022-09-25T21:31:38.593Z,7.15
2022-09-25T21:34:12.738Z,7.22
2022-09-25T21:36:41.312Z,6.40
2022-09-25T21:39:09.438Z,7.92
2022-09-25T21:41:37.853Z,8.15
2022-09-25T21:44:12.640Z,8.13
2022-09-25T21:46:40.830Z,7.22
2022-09-25T21:49:15.190Z,7.08
2022-09-25T21:51:44.763Z,7.67
2022-09-25T21:54:14.322Z,7.35
2022-09-25T21:56:43.708Z,7.20
2022-09-25T21:59:11.969Z,8.40
2022-09-25T22:01:40.447Z,4.08
2022-09-25T22:04:12.440Z,6.92
2022-09-25T22:06:44.782Z,7.95
2022-09-25T22:09:17.268Z,8.23
2022-09-25T22:11:47.291Z,7.45
2022-09-25T22:14:16.550Z,6.10
2022-09-25T22:16:48.762Z,5.25
2022-09-25T22:19:26.650Z,4.62
2022-09-25T22:21:57.630Z,6.37
2022-09-25T22:24:26.148Z,6.95
2022-09-25T22:26:55.741Z,7.10
2022-09-25T22:29:24.401Z,6.90
2022-09-25T22:31:52.684Z,6.85
2022-09-25T22:34:24.572Z,5.65
2022-09-25T22:36:58.683Z,7.25
2022-09-25T22:39:22.842Z,5.75
2022-09-25T22:41:52.855Z,7.90
2022-09-25T22:44:21.198Z,9.05
2022-09-25T22:46:49.058Z,10.13
2022-09-25T22:49:17.094Z,7.00
2022-09-25T22:51:44.715Z,11.60
2022-09-25T22:54:13.893Z,5.75
2022-09-25T22:56:42.097Z,5.85
2022-09-25T22:59:15.632Z,4.87
2022-09-25T23:01:52.991Z,4.97
2022-09-25T23:04:23.711Z,6.25
2022-09-25T23:06:51.923Z,5.78
2022-09-25T23:09:25.368Z,6.10
2022-09-25T23:11:55.779Z,8.58
2022-09-25T23:14:28.587Z,10.35
2022-09-25T23:16:57.233Z,4.73
2022-09-25T23:19:25.284Z,6.67
2022-09-25T23:21:54.998Z,4.25
2022-09-25T23:24:23.834Z,3.95
2022-09-25T23:26:52.661Z,5.75
2022-09-25T23:29:22.009Z,4.60
2022-09-25T23:31:50.856Z,3.67
2022-09-25T23:34:19.132Z,4.58
2022-09-25T23:36:46.759Z,4.40
2022-09-25T23:39:18.318Z,4.47
2022-09-25T23:41:46.346Z,4.55
2022-09-25T23:44:13.989Z,3.87
2022-09-25T23:46:42.985Z,3.60
2022-09-25T23:49:11.484Z,4.85
2022-09-25T23:51:39.461Z,6.22
2022-09-25T23:54:07.099Z,4.97
2022-09-25T23:56:35.787Z,4.72
2022-09-25T23:59:04.846Z,5.53
